Página principal
METAR-TAF:

METAR-TAF

Aeroportos :

Aeroporto da Madeira

Funchal, Madeira, Portugal

latitude: 32-41-52N, longitude: 016-46-28W, altura: 59 m

Observação actual do tempo

O boletim foi feito há 14 minutos, às 12:00 UTC
Vento 15 kt de nor-nordeste
Temperatura 24°C
Humidade 54%
Pressão 1018 hPa
Visibilidade 10 km ou mais
Poucas nuvensa uma altura de 1500 ft

METAR: LPMA 191200Z 03015KT 9999 FEW015 24/14 Q1018

Hora: 13:14 (12:14 UTC)

Previsão

O boletim foi feito há 1 hora e 14 minutos, às 11:00 UTC
Previsão válida de 19 às 12 UTC a 20 às 12 UTC
Vento 10 kt de nor-nordeste
Visibilidade 10 km ou mais
Nuvens dispersasa uma altura de 1600 ft

TAF: LPMA 191100Z 1912/2012 02010KT 9999 SCT016

Observações e previsões do tempo de mais de 4000 aeroportos (mensagens METAR e TAF).

As estações disponíveis são os pontos amarelos e vermelhos sobre o mapa.

Mova o rato sobre o mapa para ver o nome da estação.

Depois clique no ponto para visualizar as observações e previsões meteorológicas.

Para alterar o mapa : clique nos botões verdes com uma cruz preta para aumentar o zoom; no botão verde com uma pitada de zoom; ou nas setas verdes para mapas adjacentes.


METAR-TAF: